Time;durP1;ratioP1;P1;durP2;ratioP2;P2;SDS_P1;SDS_P2;PMS_P1;PMS_P2;Temp;Humidity;BMP_temperature;BMP_pressure;BME280_temperature;BME280_humidity;BME280_pressure;Samples;Min_cycle;Max_cycle;Signal;HPM_P1;HPM_P2
2024/02/04 00:00:03;;;;;;;;;;;;;;;7.34;100.00;95129.47;10470955;28;19912;-85
2024/02/04 00:05:03;;;;;;;;;;;;;;;7.31;100.00;95128.06;10451535;28;20291;-84
2024/02/04 00:10:04;;;;;;;;;;;;;;;7.35;100.00;95123.03;10447758;28;19916;-85
2024/02/04 00:15:04;;;;;;;;;;;;;;;7.26;100.00;95133.34;10465745;28;20019;-84
2024/02/04 00:20:05;;;;;;;;;;;;;;;7.27;100.00;95134.97;10465544;28;19977;-83
2024/02/04 00:25:06;;;;;;;;;;;;;;;7.23;100.00;95122.28;10447652;28;20337;-86
2024/02/04 00:30:06;;;;;;;;;;;;;;;7.29;100.00;95129.38;10463612;28;20611;-84
2024/02/04 00:35:07;;;;;;;;;;;;;;;7.29;100.00;95130.16;10462595;28;20036;-84
2024/02/04 00:40:07;;;;;;;;;;;;;;;7.34;100.00;95132.13;10467186;28;19955;-83
2024/02/04 00:45:07;;;;;;;;;;;;;;;7.22;100.00;95124.16;10465109;28;19949;-84
2024/02/04 00:50:08;;;;;;;;;;;;;;;7.36;100.00;95122.78;10468922;28;19978;-85
2024/02/04 00:55:08;;;;;;;;;;;;;;;7.39;100.00;95115.34;10464401;28;20361;-85
2024/02/04 01:00:10;;;;;;;;;;;;;;;7.40;100.00;95127.69;10464285;28;19917;-83
2024/02/04 01:05:11;;;;;;;;;;;;;;;7.44;100.00;95121.59;10445007;28;20062;-84
2024/02/04 01:10:11;;;;;;;;;;;;;;;7.47;100.00;95120.28;10482549;28;20486;-83
2024/02/04 01:15:11;;;;;;;;;;;;;;;7.46;100.00;95121.34;10479431;28;20283;-85
2024/02/04 01:20:11;;;;;;;;;;;;;;;7.46;100.00;95119.47;10446170;28;20050;-84
2024/02/04 01:25:12;;;;;;;;;;;;;;;7.50;100.00;95115.25;10446774;28;19916;-84
2024/02/04 01:30:12;;;;;;;;;;;;;;;7.48;100.00;95117.38;10464729;28;19913;-85
2024/02/04 01:35:17;;;;;;;;;;;;;;;7.52;100.00;95115.00;10475928;28;19920;-84
2024/02/04 01:40:18;;;;;;;;;;;;;;;7.58;100.00;95111.38;10459910;28;20590;-84
2024/02/04 01:45:18;;;;;;;;;;;;;;;7.56;100.00;95105.44;10461428;28;19920;-85
2024/02/04 01:50:18;;;;;;;;;;;;;;;7.63;100.00;95095.41;10484995;28;19924;-84
2024/02/04 01:55:18;;;;;;;;;;;;;;;7.58;100.00;95095.31;10471373;28;20023;-85
2024/02/04 02:00:19;;;;;;;;;;;;;;;7.66;100.00;95092.22;10469945;28;19916;-83
2024/02/04 02:05:21;;;;;;;;;;;;;;;7.81;100.00;95091.63;10467679;28;20421;-84
2024/02/04 02:10:23;;;;;;;;;;;;;;;7.93;100.00;95088.06;10464988;28;19919;-85
2024/02/04 02:15:27;;;;;;;;;;;;;;;7.97;100.00;95089.97;10448008;28;20011;-87
2024/02/04 02:21:00;;;;;;;;;;;;;;;8.09;100.00;95078.34;10462511;28;20294;-85
2024/02/04 02:26:16;;;;;;;;;;;;;;;8.16;100.00;95081.63;10446547;28;20661;-86
2024/02/04 02:31:28;;;;;;;;;;;;;;;8.25;100.00;95088.19;10481443;28;19974;-85
2024/02/04 02:36:32;;;;;;;;;;;;;;;8.27;100.00;95077.22;10466637;28;19919;-85
2024/02/04 02:41:33;;;;;;;;;;;;;;;8.20;100.00;95067.53;10475884;28;19966;-86
2024/02/04 02:46:34;;;;;;;;;;;;;;;8.17;100.00;95073.34;10479781;28;20698;-85
2024/02/04 02:51:34;;;;;;;;;;;;;;;8.08;100.00;95076.72;10463365;28;19920;-83
2024/02/04 02:56:46;;;;;;;;;;;;;;;8.11;100.00;95076.25;10420706;28;20283;-84
2024/02/04 03:01:46;;;;;;;;;;;;;;;8.15;100.00;95069.28;10457417;28;19912;-87
2024/02/04 03:06:53;;;;;;;;;;;;;;;8.15;100.00;95067.44;10494921;28;19919;-85
2024/02/04 03:11:53;;;;;;;;;;;;;;;8.26;100.00;95056.84;10466969;28;19912;-85
2024/02/04 03:16:53;;;;;;;;;;;;;;;8.49;100.00;95061.16;10463147;28;19916;-85
2024/02/04 03:21:53;;;;;;;;;;;;;;;8.41;100.00;95048.97;10482896;28;19916;-84
2024/02/04 03:26:54;;;;;;;;;;;;;;;8.52;100.00;95057.97;10479843;28;19963;-85
2024/02/04 03:31:55;;;;;;;;;;;;;;;8.62;100.00;95058.06;10479510;28;19916;-85
2024/02/04 03:36:56;;;;;;;;;;;;;;;8.60;100.00;95048.69;10447647;28;20276;-87
2024/02/04 03:41:56;;;;;;;;;;;;;;;8.71;100.00;95048.53;10475989;28;19924;-84
2024/02/04 03:46:56;;;;;;;;;;;;;;;8.55;100.00;95042.22;10478314;28;19912;-85
2024/02/04 03:51:57;;;;;;;;;;;;;;;8.61;100.00;95002.88;10461161;28;19956;-85
2024/02/04 03:57:04;;;;;;;;;;;;;;;8.46;100.00;95026.84;10477405;28;19926;-84
2024/02/04 04:02:04;;;;;;;;;;;;;;;8.55;100.00;95031.50;10485858;28;20322;-84
2024/02/04 04:07:04;;;;;;;;;;;;;;;8.56;100.00;95037.66;10466408;28;19917;-83
2024/02/04 04:12:12;;;;;;;;;;;;;;;8.34;100.00;95051.88;10476252;28;19912;-83
2024/02/04 04:17:12;;;;;;;;;;;;;;;8.27;100.00;95045.88;10470498;28;19924;-82
2024/02/04 04:22:12;;;;;;;;;;;;;;;8.13;100.00;95029.41;10448644;28;19928;-84
2024/02/04 04:27:23;;;;;;;;;;;;;;;8.21;100.00;95026.28;10476618;28;20370;-84
2024/02/04 04:32:23;;;;;;;;;;;;;;;8.34;100.00;95038.50;10457185;28;19977;-84
2024/02/04 04:37:23;;;;;;;;;;;;;;;8.41;100.00;95048.97;10490831;28;20353;-84
2024/02/04 04:42:23;;;;;;;;;;;;;;;8.54;100.00;95050.50;10443267;28;19963;-84
2024/02/04 04:47:24;;;;;;;;;;;;;;;8.64;100.00;95050.59;10475084;28;19967;-84
2024/02/04 04:52:24;;;;;;;;;;;;;;;8.73;100.00;95050.94;10474611;28;19931;-84
2024/02/04 04:57:49;;;;;;;;;;;;;;;8.76;100.00;95037.03;10466566;28;19985;-84
2024/02/04 05:02:49;;;;;;;;;;;;;;;8.59;100.00;95034.47;10441200;28;20372;-84
2024/02/04 05:07:49;;;;;;;;;;;;;;;8.56;100.00;95029.63;10489577;28;19918;-84
2024/02/04 05:12:51;;;;;;;;;;;;;;;8.63;100.00;95030.22;10440706;28;19986;-85
2024/02/04 05:17:51;;;;;;;;;;;;;;;8.52;100.00;95017.78;10457585;28;19924;-84
2024/02/04 05:22:51;;;;;;;;;;;;;;;8.53;100.00;95025.56;10456409;28;19924;-85
2024/02/04 05:28:01;;;;;;;;;;;;;;;8.53;100.00;95030.13;10457096;28;20287;-85
2024/02/04 05:33:01;;;;;;;;;;;;;;;8.58;100.00;95059.63;10457865;28;19913;-85
2024/02/04 05:38:01;;;;;;;;;;;;;;;8.66;100.00;95058.38;10464679;28;20685;-86
2024/02/04 05:43:07;;;;;;;;;;;;;;;8.71;100.00;95056.56;10452227;28;19921;-86
2024/02/04 05:48:07;;;;;;;;;;;;;;;8.74;100.00;95057.13;10447847;28;19939;-85
2024/02/04 05:53:24;;;;;;;;;;;;;;;8.75;100.00;95058.72;10450268;28;19931;-86
2024/02/04 05:58:24;;;;;;;;;;;;;;;8.83;100.00;95069.00;10474266;28;20057;-85
2024/02/04 06:03:24;;;;;;;;;;;;;;;8.91;100.00;95068.53;10475558;28;20382;-85
2024/02/04 06:08:24;;;;;;;;;;;;;;;8.77;100.00;95062.78;10473915;28;19916;-85
2024/02/04 06:13:39;;;;;;;;;;;;;;;8.81;100.00;95077.28;10456558;28;19920;-84
2024/02/04 06:18:40;;;;;;;;;;;;;;;8.61;100.00;95053.78;10476367;28;19913;-83
2024/02/04 06:23:40;;;;;;;;;;;;;;;8.64;100.00;95076.59;10455884;28;20182;-83
2024/02/04 06:28:40;;;;;;;;;;;;;;;8.72;100.00;95074.25;10472653;28;20442;-84
2024/02/04 06:33:40;;;;;;;;;;;;;;;8.84;100.00;95092.84;10456841;28;19912;-84
2024/02/04 06:38:42;;;;;;;;;;;;;;;8.91;100.00;95118.66;10470926;28;19927;-90
2024/02/04 06:43:42;;;;;;;;;;;;;;;8.98;100.00;95125.44;10483502;28;19975;-89
2024/02/04 06:48:42;;;;;;;;;;;;;;;9.11;100.00;95112.69;10466196;28;20351;-80
2024/02/04 06:53:42;;;;;;;;;;;;;;;9.20;100.00;95105.81;10477363;28;19920;-79
2024/02/04 06:58:44;;;;;;;;;;;;;;;9.33;100.00;95097.31;10471446;28;20354;-90
2024/02/04 07:03:44;;;;;;;;;;;;;;;9.00;100.00;95106.41;10485133;28;21389;-82
2024/02/04 07:08:44;;;;;;;;;;;;;;;9.25;100.00;95103.16;10471794;28;20356;-82
2024/02/04 07:13:45;;;;;;;;;;;;;;;9.37;100.00;95119.09;10471958;28;19953;-84
2024/02/04 07:18:45;;;;;;;;;;;;;;;9.69;100.00;95124.41;10470899;28;19943;-80
2024/02/04 07:23:45;;;;;;;;;;;;;;;9.75;100.00;95111.84;10469597;28;20318;-83
2024/02/04 07:28:46;;;;;;;;;;;;;;;9.96;100.00;95117.34;10487550;28;20571;-80
2024/02/04 07:33:47;;;;;;;;;;;;;;;9.95;100.00;95099.63;10475857;28;19912;-81
2024/02/04 07:38:47;;;;;;;;;;;;;;;9.95;100.00;95096.94;10451778;28;19977;-81
2024/02/04 07:43:48;;;;;;;;;;;;;;;10.24;100.00;95102.72;10478544;28;20027;-80
2024/02/04 07:48:48;;;;;;;;;;;;;;;10.30;100.00;95103.53;10471585;28;19920;-81
2024/02/04 07:53:48;;;;;;;;;;;;;;;9.94;100.00;95104.19;10473056;28;20319;-81
2024/02/04 07:58:48;;;;;;;;;;;;;;;10.32;100.00;95121.03;10472197;28;19934;-86
2024/02/04 08:03:49;;;;;;;;;;;;;;;10.74;97.20;95113.97;10451608;28;19928;-78
2024/02/04 08:08:49;;;;;;;;;;;;;;;11.73;88.59;95092.22;10474760;28;19919;-85
2024/02/04 08:13:49;;;;;;;;;;;;;;;11.79;84.65;95106.50;10479105;28;19917;-84
2024/02/04 08:18:49;;;;;;;;;;;;;;;11.52;82.02;95101.41;10472281;28;20364;-81
2024/02/04 08:23:50;;;;;;;;;;;;;;;12.39;80.93;95100.47;10487972;28;20304;-94
2024/02/04 08:28:50;;;;;;;;;;;;;;;14.63;65.74;95100.09;10456567;28;20054;-80
2024/02/04 08:33:52;;;;;;;;;;;;;;;13.97;61.25;95097.00;10481060;28;19913;-78
2024/02/04 08:38:52;;;;;;;;;;;;;;;13.39;63.55;95109.38;10461193;28;19964;-78
2024/02/04 08:43:53;;;;;;;;;;;;;;;12.95;65.00;95110.19;10471758;28;19980;-80
2024/02/04 08:48:53;;;;;;;;;;;;;;;12.91;66.72;95111.84;10481493;28;19927;-93
2024/02/04 08:53:53;;;;;;;;;;;;;;;13.12;68.31;95123.31;10441726;28;20284;-81
2024/02/04 08:58:53;;;;;;;;;;;;;;;13.34;65.49;95122.91;10469041;28;19916;-80
2024/02/04 09:03:54;;;;;;;;;;;;;;;13.75;63.28;95119.09;10472395;28;20444;-84
2024/02/04 09:08:57;;;;;;;;;;;;;;;13.75;63.46;95116.41;10448861;28;20387;-88
2024/02/04 09:13:57;;;;;;;;;;;;;;;13.55;63.74;95107.38;10448365;28;19912;-79
2024/02/04 09:18:58;;;;;;;;;;;;;;;13.37;63.79;95119.66;10468875;28;19916;-79
2024/02/04 09:24:04;;;;;;;;;;;;;;;12.61;68.37;95110.88;10456530;28;19916;-86
2024/02/04 09:29:05;;;;;;;;;;;;;;;12.11;71.47;95119.69;10483224;28;19931;-88
2024/02/04 09:34:05;;;;;;;;;;;;;;;12.02;75.37;95129.41;10478593;28;19921;-81
2024/02/04 09:39:06;;;;;;;;;;;;;;;11.26;84.20;95118.38;10475327;28;19920;-86
2024/02/04 09:44:07;;;;;;;;;;;;;;;11.75;83.68;95119.72;10467324;28;20391;-85
2024/02/04 09:49:08;;;;;;;;;;;;;;;11.58;86.79;95133.47;10471644;28;20015;-85
2024/02/04 09:54:10;;;;;;;;;;;;;;;11.96;86.01;95133.19;10466837;28;19912;-85
2024/02/04 09:59:11;;;;;;;;;;;;;;;12.03;82.42;95116.72;10463819;28;20034;-84
2024/02/04 10:04:11;;;;;;;;;;;;;;;12.05;84.14;95107.28;10470654;28;20031;-86
2024/02/04 10:09:12;;;;;;;;;;;;;;;12.30;81.97;95108.31;10470603;28;20374;-85
2024/02/04 10:14:12;;;;;;;;;;;;;;;12.35;81.45;95094.84;10477960;28;20005;-86
2024/02/04 10:19:17;;;;;;;;;;;;;;;12.32;86.80;95119.59;10462990;28;19916;-85
2024/02/04 10:24:18;;;;;;;;;;;;;;;12.20;85.89;95111.84;10491563;28;20506;-84
2024/02/04 10:29:18;;;;;;;;;;;;;;;11.69;94.13;95114.59;10474550;28;19916;-85
2024/02/04 10:34:18;;;;;;;;;;;;;;;11.65;93.47;95108.94;10475594;28;19938;-83
2024/02/04 10:39:25;;;;;;;;;;;;;;;11.55;95.84;95082.81;10471179;28;19918;-85
2024/02/04 10:44:26;;;;;;;;;;;;;;;11.51;96.78;95078.25;10452719;28;19921;-85
2024/02/04 10:49:27;;;;;;;;;;;;;;;11.42;100.00;95094.94;10489279;28;19978;-85
2024/02/04 10:54:29;;;;;;;;;;;;;;;11.70;96.26;95106.25;10473470;28;19955;-86
2024/02/04 10:59:32;;;;;;;;;;;;;;;11.44;96.91;95081.22;10483264;28;20344;-85
2024/02/04 11:04:37;;;;;;;;;;;;;;;11.79;95.82;95085.78;10449093;28;19977;-84
2024/02/04 11:09:37;;;;;;;;;;;;;;;12.02;93.55;95074.72;10468816;28;20581;-86
2024/02/04 11:14:42;;;;;;;;;;;;;;;12.40;91.15;95089.41;10449666;28;19913;-85
2024/02/04 11:20:01;;;;;;;;;;;;;;;13.31;80.35;95062.19;10473407;28;19916;-85
2024/02/04 11:25:13;;;;;;;;;;;;;;;14.69;76.97;95040.22;10474017;28;19923;-85
2024/02/04 11:30:14;;;;;;;;;;;;;;;15.62;62.21;95036.09;10467013;28;19922;-84
2024/02/04 11:35:19;;;;;;;;;;;;;;;16.03;58.59;95043.53;10468322;28;19983;-85
2024/02/04 11:40:20;;;;;;;;;;;;;;;16.13;57.60;95041.69;10466466;28;19924;-83
2024/02/04 11:45:26;;;;;;;;;;;;;;;15.12;60.14;95035.81;10461411;28;19959;-84
2024/02/04 11:50:30;;;;;;;;;;;;;;;15.13;60.14;95034.72;10465775;28;20407;-82
2024/02/04 11:55:31;;;;;;;;;;;;;;;14.02;69.24;95013.16;10468378;28;19920;-84
2024/02/04 12:00:32;;;;;;;;;;;;;;;14.96;63.36;95002.75;10462740;28;20355;-79
2024/02/04 12:05:34;;;;;;;;;;;;;;;14.09;66.58;95000.09;10465386;28;19963;-82
2024/02/04 12:10:35;;;;;;;;;;;;;;;13.56;73.38;95005.56;10468535;28;20245;-86
2024/02/04 12:15:38;;;;;;;;;;;;;;;13.57;72.51;95013.38;10442108;28;19981;-82
2024/02/04 12:20:39;;;;;;;;;;;;;;;13.15;76.88;95012.09;10471028;28;20413;-90
2024/02/04 12:25:39;;;;;;;;;;;;;;;13.56;73.33;95002.84;10454608;28;20039;-90
2024/02/04 12:30:39;;;;;;;;;;;;;;;13.13;72.94;94995.38;10450927;28;19959;-87
2024/02/04 12:35:40;;;;;;;;;;;;;;;13.56;74.70;95000.16;10453690;28;19943;-89
2024/02/04 12:40:42;;;;;;;;;;;;;;;12.96;75.87;95007.41;10459516;28;19995;-89
2024/02/04 12:45:43;;;;;;;;;;;;;;;12.97;77.53;95006.28;10489100;28;19917;-88
2024/02/04 12:50:43;;;;;;;;;;;;;;;13.19;74.18;95001.56;10443783;28;19935;-80
2024/02/04 12:55:43;;;;;;;;;;;;;;;12.91;71.63;94998.53;10464937;28;20053;-85
2024/02/04 13:00:43;;;;;;;;;;;;;;;12.58;73.86;95007.09;10470680;28;19927;-79
2024/02/04 13:05:45;;;;;;;;;;;;;;;12.90;73.50;95021.19;10465540;28;20415;-79
2024/02/04 13:10:53;;;;;;;;;;;;;;;12.90;76.08;95019.28;10473527;28;19921;-79
2024/02/04 13:15:54;;;;;;;;;;;;;;;12.51;75.92;95030.06;10466352;28;19919;-78
2024/02/04 13:20:54;;;;;;;;;;;;;;;12.73;75.60;95027.78;10466355;28;19923;-83
2024/02/04 13:25:54;;;;;;;;;;;;;;;12.71;75.85;95027.25;10461891;28;19924;-78
2024/02/04 13:30:54;;;;;;;;;;;;;;;12.00;80.99;95033.78;10435860;28;19916;-79
2024/02/04 13:35:55;;;;;;;;;;;;;;;12.61;79.11;95038.91;10453540;28;19920;-79
2024/02/04 13:40:55;;;;;;;;;;;;;;;12.96;75.42;95017.38;10454135;28;20382;-79
2024/02/04 13:45:55;;;;;;;;;;;;;;;12.82;74.76;95036.06;10440250;28;20081;-78
2024/02/04 13:50:56;;;;;;;;;;;;;;;12.49;78.22;95043.81;10464832;28;19982;-78
2024/02/04 13:55:56;;;;;;;;;;;;;;;12.56;78.57;95049.72;10447040;28;20063;-79
2024/02/04 14:00:57;;;;;;;;;;;;;;;12.54;78.47;95051.06;10463259;28;19924;-78
2024/02/04 14:05:57;;;;;;;;;;;;;;;12.20;80.29;95043.69;10466033;28;20011;-78
2024/02/04 14:10:57;;;;;;;;;;;;;;;12.01;84.09;95049.66;10467585;28;19916;-79
2024/02/04 14:15:57;;;;;;;;;;;;;;;11.96;84.68;95055.88;10464065;28;19916;-79
2024/02/04 14:20:57;;;;;;;;;;;;;;;12.02;85.27;95053.97;10465313;28;19920;-77
2024/02/04 14:25:58;;;;;;;;;;;;;;;12.00;86.39;95061.53;10467482;28;19920;-78
2024/02/04 14:30:58;;;;;;;;;;;;;;;12.21;85.63;95062.28;10499487;22;19935;-77
2024/02/04 14:36:00;;;;;;;;;;;;;;;12.01;85.03;95049.66;10528181;28;19923;-77
2024/02/04 14:41:00;;;;;;;;;;;;;;;11.99;86.22;95068.00;10519070;28;20361;-83
2024/02/04 14:46:01;;;;;;;;;;;;;;;12.15;85.95;95066.03;10520622;28;20090;-84
2024/02/04 14:51:01;;;;;;;;;;;;;;;12.28;84.93;95073.56;10521782;28;19911;-84
2024/02/04 14:56:01;;;;;;;;;;;;;;;12.14;85.24;95067.94;10496607;28;19965;-78
2024/02/04 15:01:02;;;;;;;;;;;;;;;11.90;86.85;95064.19;10481322;28;19916;-77
2024/02/04 15:06:04;;;;;;;;;;;;;;;11.82;89.42;95067.44;10498270;28;19998;-78
2024/02/04 15:11:04;;;;;;;;;;;;;;;11.64;91.42;95069.66;10466746;28;20513;-78
2024/02/04 15:16:06;;;;;;;;;;;;;;;11.38;94.25;95060.78;10476952;28;19917;-83
2024/02/04 15:21:14;;;;;;;;;;;;;;;11.29;95.79;95066.72;10464746;28;20340;-75
2024/02/04 15:26:15;;;;;;;;;;;;;;;11.24;97.64;95071.28;10459581;28;20426;-83
2024/02/04 15:31:16;;;;;;;;;;;;;;;11.16;98.94;95074.50;10480821;28;19932;-79
2024/02/04 15:36:19;;;;;;;;;;;;;;;11.04;100.00;95078.25;10471742;28;20002;-78
2024/02/04 15:41:24;;;;;;;;;;;;;;;10.89;100.00;95076.34;10475110;28;19917;-83
2024/02/04 15:46:45;;;;;;;;;;;;;;;10.92;100.00;95083.06;10467530;28;20306;-77
2024/02/04 15:51:46;;;;;;;;;;;;;;;10.87;100.00;95089.25;10441438;28;19916;-76
2024/02/04 15:56:51;;;;;;;;;;;;;;;10.84;100.00;95084.44;10471723;28;19912;-78
2024/02/04 16:01:52;;;;;;;;;;;;;;;10.64;100.00;95087.84;10473698;28;19912;-81
2024/02/04 16:06:52;;;;;;;;;;;;;;;10.70;100.00;95073.38;10441563;28;20506;-79
2024/02/04 16:12:05;;;;;;;;;;;;;;;10.56;100.00;95069.56;10473215;28;20409;-78
2024/02/04 16:17:06;;;;;;;;;;;;;;;10.33;100.00;95060.84;10450447;28;20026;-79
2024/02/04 16:22:10;;;;;;;;;;;;;;;10.14;100.00;95059.72;10467212;28;19913;-76
2024/02/04 16:27:10;;;;;;;;;;;;;;;10.05;100.00;95062.09;10452570;28;20013;-78
2024/02/04 16:32:14;;;;;;;;;;;;;;;9.96;100.00;95067.13;10439681;28;20011;-77
2024/02/04 16:37:14;;;;;;;;;;;;;;;9.83;100.00;95078.34;10425363;28;20007;-78
2024/02/04 16:42:14;;;;;;;;;;;;;;;9.81;100.00;95088.53;10412781;28;20292;-82
2024/02/04 16:47:15;;;;;;;;;;;;;;;9.68;100.00;95095.16;10425719;28;19924;-77
2024/02/04 16:52:15;;;;;;;;;;;;;;;9.60;100.00;95091.09;10429310;28;19924;-78
2024/02/04 16:57:15;;;;;;;;;;;;;;;9.54;100.00;95102.84;10430181;28;20595;-81
2024/02/04 17:02:23;;;;;;;;;;;;;;;9.50;100.00;95110.63;10430017;28;20861;-77
2024/02/04 17:07:24;;;;;;;;;;;;;;;9.53;100.00;95115.47;10423689;28;20006;-78
2024/02/04 17:12:26;;;;;;;;;;;;;;;9.53;100.00;95120.00;10441401;28;19928;-77
2024/02/04 17:17:28;;;;;;;;;;;;;;;9.49;100.00;95114.34;10420652;28;19931;-79
2024/02/04 17:22:30;;;;;;;;;;;;;;;9.41;100.00;95122.88;10424746;28;19913;-77
2024/02/04 17:27:40;;;;;;;;;;;;;;;9.41;100.00;95118.31;10427010;28;19921;-78
2024/02/04 17:32:42;;;;;;;;;;;;;;;9.45;100.00;95117.81;10452937;28;19923;-77
2024/02/04 17:37:44;;;;;;;;;;;;;;;9.43;100.00;95119.94;10459520;28;19933;-76
2024/02/04 17:42:44;;;;;;;;;;;;;;;9.39;100.00;95130.34;10440667;28;20003;-80
2024/02/04 17:47:46;;;;;;;;;;;;;;;9.35;100.00;95130.06;10463142;28;19932;-80
2024/02/04 17:52:46;;;;;;;;;;;;;;;9.37;100.00;95121.75;10455901;28;19913;-76
2024/02/04 17:57:49;;;;;;;;;;;;;;;9.38;100.00;95134.13;10460009;28;20734;-75
2024/02/04 18:02:49;;;;;;;;;;;;;;;9.32;100.00;95143.16;10462600;28;19916;-74
2024/02/04 18:07:52;;;;;;;;;;;;;;;9.29;100.00;95149.84;10450837;28;19917;-82
2024/02/04 18:12:52;;;;;;;;;;;;;;;9.26;100.00;95158.41;10440441;28;19948;-76
2024/02/04 18:17:53;;;;;;;;;;;;;;;9.21;100.00;95153.03;10445923;28;20007;-75
2024/02/04 18:22:53;;;;;;;;;;;;;;;9.23;100.00;95150.88;10464932;28;19962;-76
2024/02/04 18:27:53;;;;;;;;;;;;;;;9.32;100.00;95165.47;10459391;28;19925;-77
2024/02/04 18:32:54;;;;;;;;;;;;;;;9.25;100.00;95159.47;10435778;28;19985;-77
2024/02/04 18:37:55;;;;;;;;;;;;;;;9.31;100.00;95154.97;10454803;28;19924;-78
2024/02/04 18:42:57;;;;;;;;;;;;;;;9.45;100.00;95156.16;10450942;28;20414;-75
2024/02/04 18:47:58;;;;;;;;;;;;;;;9.51;100.00;95163.19;10460339;28;20011;-75
2024/02/04 18:52:59;;;;;;;;;;;;;;;9.59;100.00;95156.56;10462495;28;19913;-77
2024/02/04 18:58:00;;;;;;;;;;;;;;;9.60;100.00;95168.91;10473961;28;19920;-81
2024/02/04 19:03:01;;;;;;;;;;;;;;;9.57;100.00;95170.22;10465633;28;20419;-76
2024/02/04 19:08:02;;;;;;;;;;;;;;;9.57;100.00;95166.72;10423913;28;20379;-76
2024/02/04 19:13:03;;;;;;;;;;;;;;;9.55;100.00;95161.63;10463509;28;19916;-77
2024/02/04 19:18:03;;;;;;;;;;;;;;;9.33;100.00;95152.84;10466123;28;19912;-76
2024/02/04 19:23:04;;;;;;;;;;;;;;;9.20;100.00;95156.75;10464104;28;19913;-76
2024/02/04 19:28:04;;;;;;;;;;;;;;;9.25;100.00;95143.38;10459916;28;19916;-77
2024/02/04 19:33:04;;;;;;;;;;;;;;;9.43;100.00;95152.13;10426267;28;20019;-75
2024/02/04 19:38:05;;;;;;;;;;;;;;;9.44;100.00;95154.53;10462988;28;19997;-77
2024/02/04 19:43:05;;;;;;;;;;;;;;;9.42;100.00;95159.38;10459553;28;19913;-77
2024/02/04 19:48:05;;;;;;;;;;;;;;;9.49;100.00;95162.66;10461448;28;20011;-76
2024/02/04 19:53:06;;;;;;;;;;;;;;;9.41;100.00;95160.44;10462962;28;19947;-78
2024/02/04 19:58:07;;;;;;;;;;;;;;;9.46;100.00;95173.06;10454251;28;19912;-77
2024/02/04 20:03:08;;;;;;;;;;;;;;;9.43;100.00;95168.22;10461787;28;19951;-76
2024/02/04 20:08:08;;;;;;;;;;;;;;;9.39;100.00;95170.59;10454659;28;20040;-80
2024/02/04 20:13:10;;;;;;;;;;;;;;;9.50;100.00;95169.63;10461906;28;20359;-84
2024/02/04 20:18:12;;;;;;;;;;;;;;;9.48;100.00;95176.31;10467436;28;19924;-84
2024/02/04 20:23:13;;;;;;;;;;;;;;;9.44;100.00;95176.00;10470473;28;19917;-79
2024/02/04 20:28:14;;;;;;;;;;;;;;;9.26;100.00;95171.81;10479886;28;19920;-77
2024/02/04 20:33:14;;;;;;;;;;;;;;;9.13;100.00;95166.88;10479170;28;19921;-79
2024/02/04 20:38:15;;;;;;;;;;;;;;;9.14;100.00;95160.44;10480197;28;19927;-80
2024/02/04 20:43:16;;;;;;;;;;;;;;;9.11;99.73;95153.72;10463240;28;19920;-78
2024/02/04 20:48:17;;;;;;;;;;;;;;;9.15;98.61;95151.34;10483140;28;19942;-79
2024/02/04 20:53:17;;;;;;;;;;;;;;;9.18;98.99;95150.81;10447365;28;20021;-78
2024/02/04 20:58:18;;;;;;;;;;;;;;;9.23;98.09;95153.56;10465645;28;19934;-79
2024/02/04 21:03:18;;;;;;;;;;;;;;;9.26;98.52;95145.00;10496093;22;20406;-78
2024/02/04 21:08:19;;;;;;;;;;;;;;;9.30;97.77;95142.63;10524327;28;19920;-76
2024/02/04 21:13:19;;;;;;;;;;;;;;;9.26;97.86;95147.69;10506800;28;19912;-78
2024/02/04 21:18:19;;;;;;;;;;;;;;;9.23;98.23;95145.50;10507114;28;19922;-78
2024/02/04 21:23:19;;;;;;;;;;;;;;;9.19;98.70;95141.72;10505974;28;19916;-77
2024/02/04 21:28:20;;;;;;;;;;;;;;;9.19;99.10;95141.72;10524138;28;19982;-76
2024/02/04 21:33:20;;;;;;;;;;;;;;;9.12;99.06;95138.44;10524054;28;19916;-78
2024/02/04 21:38:21;;;;;;;;;;;;;;;9.16;98.27;95152.97;10505727;28;20068;-81
2024/02/04 21:43:22;;;;;;;;;;;;;;;9.10;99.21;95153.97;10505875;28;19924;-78
2024/02/04 21:48:22;;;;;;;;;;;;;;;8.96;100.00;95149.00;10525301;28;19972;-76
2024/02/04 21:53:22;;;;;;;;;;;;;;;8.85;100.00;95136.56;10493589;28;19983;-79
2024/02/04 21:58:22;;;;;;;;;;;;;;;8.79;100.00;95133.03;10478619;28;19912;-81
2024/02/04 22:03:23;;;;;;;;;;;;;;;8.70;100.00;95129.16;10505431;28;19933;-77
2024/02/04 22:08:23;;;;;;;;;;;;;;;8.62;100.00;95130.41;10513520;28;19916;-77
2024/02/04 22:13:23;;;;;;;;;;;;;;;8.57;100.00;95119.66;10497208;28;19923;-77
2024/02/04 22:18:24;;;;;;;;;;;;;;;8.54;100.00;95120.16;10509832;28;19923;-76
2024/02/04 22:23:24;;;;;;;;;;;;;;;8.42;100.00;95114.88;10500284;28;19973;-76
2024/02/04 22:28:24;;;;;;;;;;;;;;;8.39;100.00;95124.22;10484256;28;19939;-82
2024/02/04 22:33:26;;;;;;;;;;;;;;;8.23;100.00;95100.19;10476984;28;19939;-78
2024/02/04 22:38:27;;;;;;;;;;;;;;;8.07;100.00;95089.28;10509232;28;19916;-82
2024/02/04 22:43:28;;;;;;;;;;;;;;;7.89;100.00;95084.25;10486582;28;20019;-77
2024/02/04 22:48:29;;;;;;;;;;;;;;;7.56;100.00;95105.44;10511939;28;19918;-77
2024/02/04 22:53:30;;;;;;;;;;;;;;;7.40;100.00;95088.38;10536414;28;19955;-80
2024/02/04 22:58:30;;;;;;;;;;;;;;;7.10;100.00;95099.38;10511702;28;19916;-75
2024/02/04 23:03:31;;;;;;;;;;;;;;;6.83;100.00;95100.00;10511705;28;20303;-76
2024/02/04 23:08:31;;;;;;;;;;;;;;;6.70;100.00;95084.25;10510857;28;19916;-76
2024/02/04 23:13:32;;;;;;;;;;;;;;;6.49;100.00;95100.72;10529437;28;19919;-79
2024/02/04 23:18:32;;;;;;;;;;;;;;;6.27;100.00;95086.41;10517763;28;19920;-75
2024/02/04 23:23:32;;;;;;;;;;;;;;;5.97;100.00;95071.38;10528817;28;19920;-81
2024/02/04 23:28:33;;;;;;;;;;;;;;;5.57;100.00;95064.94;10511590;28;20397;-79
2024/02/04 23:33:34;;;;;;;;;;;;;;;5.38;100.00;95061.59;10489739;28;19928;-84
2024/02/04 23:38:35;;;;;;;;;;;;;;;5.33;100.00;95050.00;10458992;28;19924;-83
2024/02/04 23:43:35;;;;;;;;;;;;;;;5.30;100.00;95051.28;10495290;28;19928;-80
2024/02/04 23:48:36;;;;;;;;;;;;;;;5.42;100.00;95035.28;10528542;28;19916;-82
2024/02/04 23:53:37;;;;;;;;;;;;;;;5.46;100.00;95039.91;10509383;28;19952;-79
2024/02/04 23:58:38;;;;;;;;;;;;;;;5.51;100.00;95044.53;10521350;28;19912;-77
